Dauntless Aviation
Greetings, Guest! To participate, [sign up for a free account] or [log in]
Airports Europe United Kingdom
EGLC
LCY

London City

London, UNITED KINGDOM

Airport Info
Edit

Location

Latitude / Longitude: 51°30'18"N / 0°3'12"E
  51°30.3'N / 0°3.21'E
  51.5050 / 0.0535

Nearby radio navigation aids

LCY CITY NDB on field.

Runway Information

Runway 10 /28

Dimensions: 4948 x 98 ft.
Surface: ASP
 
Runway 10
Runway 28
Latitude: 51.505528 51.504922
Longitude: 0.045753 0.064953
Elevation: 16 ft. 16 ft.
Runway true heading: 91.1 271.1
 

Instrument Procedures

  Control Zone and Control Area Chart
  Aircraft Parking/Docking Chart
  Aerodrome Chart

STARs (Standard Terminal Arrivals)

  STAR via SPEAR (Northwest)
  STAR via ALKIN (South)
  STAR via SPEAR (East)
  STAR via SPEAR (West)
  STAR via SPEAR (Alternate Holding at LOGAN and ALKIN)

IAPs (Instrument Approach Procedures)

  LOC/DME/NDB (L) Rwy 27 (Aircraft CAT A/B/C)
  Visual Approach Profile Rwy 27
  ILS (5.5°GP) /DME/NDB (L) Rwy 27 (Aircraft CAT A/B/C)
  Visual Approach Profile Rwy 09
  LOC/DME/NDB (L) Rwy 09
  ATC Surveillance Minimum Altitude Chart
  ILS (5.5°GP) /DME/NDB (L) Rwy 09 (Aircraft CAT A/B/C)

Departure Procedures

  SID DOVER/LYDD
  SID CLACTON
  SID SOUTHAMPTON
  SID BROOKMANS PARK/COMPTON
Satellite photo at:
Airport distance calculator
From:
Weather Reports

METAR

EGLC

EGLC 230720Z 23007KT 9999 SCT030 13/08 Q1021
EGKB
11.4nm S
EGKB 230720Z 22009KT 9999 BKN025 11/06 Q1021
EGLL
18.9nm SW
EGLL 230720Z 22008KT 9999 FEW026 BKN030 13/08 Q1021 NOSIG
EGSS
23.5nm N
EGSS 230720Z 22009KT 9999 BKN027 11/08 Q1020
EGKK
23.8nm S
EGKK 230720Z 20005KT 9999 BKN032 12/08 Q1021
EGMC
24.4nm NE
EGMC 230720Z 22008KT 9999 BKN030 12/07 Q1021

TAF

EGLC
TAF EGLC 230458Z 2306/2315 22007KT 9999 SCT030 TEMPO 2309/2315 7000 -RADZ BKN014
EGKB
11.4nm S
TAF EGKB 230719Z 2307/2315 23006KT 9999 BKN022 TEMPO 2309/2315 7000 -RADZ BKN014
EGWU
17.8nm W
TAF EGWU 230435Z 2306/2324 22012KT 9999 FEW016 BKN025 BECMG 2309/2312 BKN012 TEMPO 2310/2324 6000 -RADZ PROB30 TEMPO 2318/2324 BKN006
EGLL
18.9nm SW
TAF EGLL 230502Z 2306/2412 21010KT 9999 FEW014 SCT024 TEMPO 2313/2324 SCT010 BKN014 PROB30 TEMPO 2313/2324 9000 -RA BECMG 2400/2403 9000 -RA SCT008 BKN014 PROB30 TEMPO 2403/2412 4000 RADZ BKN008 BECMG 2408/2411 27010KT
EGSS
23.5nm N
TAF EGSS 230458Z 2306/2412 22008KT 9999 BKN024 TEMPO 2309/2321 7000 -RADZ BKN012 BECMG 2321/2324 BKN012 TEMPO 2322/2412 4000 RADZ BKN008 PROB30 2403/2412 BKN004
EGKK
23.8nm S
TAF EGKK 230502Z 2306/2412 22007KT 9999 SCT030 TEMPO 2307/2310 BKN014 BECMG 2310/2312 BKN012 TEMPO 2311/2412 6000 -RADZ BKN007 PROB40 TEMPO 2317/2402 SCT012 BKN016 PROB40 TEMPO 2402/2412 3000 RA BKN004
Safelog

 

Dauntless Aviation

© 2007-2014 Dauntless Aviation, all rights reserved
Information provided via PilotNav comes from a variety of official and unofficial data sources. As errors are possible, do not use PilotNav for primary flight planning purposes. Verify any information that you receive via PilotNav with current and canonical charts and other official documents. The material in this database is subject to database copyrights held by Dauntless Aviation and may not be copied without the express permission of Dauntless Aviation - licenses for use of part of all of this data are available for purchase; enquire via the Dauntless Aviation helpdesk. A number of mechanisms and markers exist in the database to protect against and identify infringement / copyright. Automated queries against this website are stictly prohibited, and all activity is logged and analyzed.